Time;durP1;ratioP1;P1;durP2;ratioP2;P2;SDS_P1;SDS_P2;PMS_P1;PMS_P2;Temp;Humidity;BMP_temperature;BMP_pressure;BME280_temperature;BME280_humidity;BME280_pressure;Samples;Min_cycle;Max_cycle;Signal;HPM_P1;HPM_P2
2022/06/30 00:00:07;;;;;;;12.98;3.53;;;16.20;99.90;;;;;;5067119;28;20079;-57
2022/06/30 00:02:37;;;;;;;10.60;2.60;;;16.10;99.90;;;;;;5066189;28;20051;-54
2022/06/30 00:05:05;;;;;;;11.90;2.58;;;16.00;99.90;;;;;;5067253;28;20048;-57
2022/06/30 00:07:31;;;;;;;5.60;2.38;;;16.00;99.90;;;;;;5067267;28;20506;-58
2022/06/30 00:09:58;;;;;;;4.95;3.38;;;16.00;99.90;;;;;;5067477;28;20044;-56
2022/06/30 00:12:25;;;;;;;10.18;2.17;;;16.10;99.90;;;;;;5067004;28;20588;-53
2022/06/30 00:14:52;;;;;;;11.38;3.72;;;16.10;99.90;;;;;;5067021;28;20048;-57
2022/06/30 00:17:18;;;;;;;10.30;2.50;;;16.10;99.90;;;;;;5066852;28;20048;-57
2022/06/30 00:19:45;;;;;;;11.32;2.67;;;16.00;99.90;;;;;;5067080;28;20487;-56
2022/06/30 00:22:13;;;;;;;11.95;3.60;;;16.00;99.90;;;;;;5066954;28;20056;-57
2022/06/30 00:24:40;;;;;;;18.80;3.17;;;16.00;99.90;;;;;;5068271;28;20051;-57
2022/06/30 00:27:07;;;;;;;11.13;4.10;;;16.10;99.90;;;;;;5071096;28;20076;-57
2022/06/30 00:29:34;;;;;;;10.23;2.15;;;16.10;99.90;;;;;;5070913;28;20044;-59
2022/06/30 00:32:00;;;;;;;6.47;2.63;;;16.10;99.90;;;;;;5070938;28;20587;-59
2022/06/30 00:34:27;;;;;;;12.55;2.92;;;16.20;99.90;;;;;;5071123;28;20044;-58
2022/06/30 00:36:55;;;;;;;11.02;2.15;;;16.10;99.90;;;;;;5069544;28;20106;-58
2022/06/30 00:39:22;;;;;;;14.80;3.15;;;16.10;99.90;;;;;;5071043;28;20044;-58
2022/06/30 00:41:49;;;;;;;13.98;2.58;;;16.10;99.90;;;;;;5070615;28;20076;-58
2022/06/30 00:44:16;;;;;;;8.13;2.50;;;16.10;99.90;;;;;;5069825;28;20533;-58
2022/06/30 00:46:44;;;;;;;9.85;2.45;;;16.00;99.90;;;;;;5070943;28;20063;-56
2022/06/30 00:49:10;;;;;;;9.98;2.42;;;16.00;99.90;;;;;;5070798;28;20086;-58
2022/06/30 00:51:37;;;;;;;11.60;2.08;;;15.90;99.90;;;;;;5070751;28;20131;-57
2022/06/30 00:54:05;;;;;;;8.35;2.42;;;15.90;99.90;;;;;;5065662;28;20527;-58
2022/06/30 00:56:35;;;;;;;11.30;2.20;;;15.80;99.90;;;;;;5070656;28;20102;-57
2022/06/30 00:59:03;;;;;;;12.32;2.45;;;15.80;99.90;;;;;;5069475;28;20041;-56
2022/06/30 01:01:31;;;;;;;11.00;2.92;;;15.80;99.90;;;;;;5070678;28;20056;-56
2022/06/30 01:03:58;;;;;;;11.77;2.88;;;15.70;99.90;;;;;;5070179;28;20225;-55
2022/06/30 01:06:25;;;;;;;16.02;2.72;;;15.70;99.90;;;;;;4719181;28;10000063;-58
2022/06/30 01:08:52;;;;;;;13.50;2.67;;;15.80;99.90;;;;;;5066385;28;20056;-57
2022/06/30 01:14:04;;;;;;;6.35;2.38;;;15.80;99.90;;;;;;5070183;28;20098;-57
2022/06/30 01:16:31;;;;;;;9.38;2.35;;;15.80;99.90;;;;;;5069811;28;20040;-57
2022/06/30 01:18:58;;;;;;;7.25;2.67;;;15.80;99.90;;;;;;5070586;28;20052;-56
2022/06/30 01:21:28;;;;;;;9.73;2.45;;;15.90;99.90;;;;;;5070219;28;20422;-55
2022/06/30 01:23:55;;;;;;;9.65;2.75;;;15.90;99.90;;;;;;5070029;28;20048;-57
2022/06/30 01:26:27;;;;;;;11.48;3.65;;;15.90;99.90;;;;;;5069798;28;20052;-53
2022/06/30 01:28:53;;;;;;;9.65;2.00;;;15.80;99.90;;;;;;5060812;28;20083;-55
2022/06/30 01:31:20;;;;;;;10.88;3.97;;;15.90;99.90;;;;;;5069926;28;20127;-56
2022/06/30 01:33:47;;;;;;;7.28;2.30;;;15.90;99.90;;;;;;5069959;28;20071;-56
2022/06/30 01:36:14;;;;;;;13.98;3.25;;;15.90;99.90;;;;;;5068633;28;20080;-56
2022/06/30 01:38:40;;;;;;;10.60;2.90;;;15.90;99.90;;;;;;5070115;28;20493;-56
2022/06/30 01:41:07;;;;;;;5.72;2.45;;;15.80;99.90;;;;;;5069689;28;20098;-55
2022/06/30 01:43:34;;;;;;;8.13;2.38;;;15.90;99.90;;;;;;5068333;28;20726;-55
2022/06/30 01:46:01;;;;;;;7.78;2.28;;;15.90;99.90;;;;;;5065861;28;20086;-54
2022/06/30 01:48:28;;;;;;;7.57;2.15;;;15.90;99.90;;;;;;5069695;28;20079;-54
2022/06/30 01:50:55;;;;;;;11.85;2.90;;;15.90;99.90;;;;;;5069786;28;20136;-56
2022/06/30 01:53:22;;;;;;;6.55;2.58;;;15.90;99.90;;;;;;5058665;28;20045;-53
2022/06/30 01:55:49;;;;;;;8.15;2.75;;;15.90;99.90;;;;;;5069312;28;20134;-53
2022/06/30 01:58:16;;;;;;;15.48;2.85;;;15.90;99.90;;;;;;5070056;28;20052;-56
2022/06/30 02:00:42;;;;;;;13.30;2.95;;;16.00;99.90;;;;;;5069568;28;20053;-52
2022/06/30 02:03:09;;;;;;;8.95;2.40;;;15.90;99.90;;;;;;5069575;28;20040;-56
2022/06/30 02:05:37;;;;;;;12.48;3.58;;;15.90;99.90;;;;;;5069566;28;20485;-56
2022/06/30 02:08:03;;;;;;;8.10;2.47;;;15.90;99.90;;;;;;5069287;28;20457;-56
2022/06/30 02:10:30;;;;;;;10.65;3.22;;;15.90;99.90;;;;;;5069282;28;20079;-55
2022/06/30 02:12:57;;;;;;;5.63;2.45;;;15.90;99.90;;;;;;5067882;28;20131;-57
2022/06/30 02:15:36;;;;;;;13.02;2.55;;;16.00;99.90;;;;;;5069296;28;20075;-55
2022/06/30 02:18:05;;;;;;;9.88;2.83;;;16.00;99.90;;;;;;5069162;28;20102;-55
2022/06/30 02:20:31;;;;;;;10.57;2.92;;;16.00;99.90;;;;;;5068918;28;20044;-56
2022/06/30 02:22:59;;;;;;;14.77;3.25;;;16.00;99.90;;;;;;5069109;28;20044;-56
2022/06/30 02:25:27;;;;;;;9.25;2.70;;;16.00;99.90;;;;;;5068929;28;20574;-56
2022/06/30 02:27:54;;;;;;;17.02;3.50;;;15.90;99.90;;;;;;5069061;28;20068;-55
2022/06/30 02:30:21;;;;;;;10.65;2.63;;;16.00;99.90;;;;;;5068987;28;20048;-55
2022/06/30 02:32:48;;;;;;;11.10;2.75;;;15.90;99.90;;;;;;5068627;28;20091;-55
2022/06/30 02:35:15;;;;;;;11.13;3.08;;;15.90;99.90;;;;;;5068793;28;20108;-56
2022/06/30 02:37:41;;;;;;;11.60;3.92;;;15.90;99.90;;;;;;5068558;28;20069;-54
2022/06/30 02:40:08;;;;;;;8.93;2.80;;;15.80;99.90;;;;;;5068763;28;20660;-54
2022/06/30 02:42:35;;;;;;;11.10;4.05;;;15.80;99.90;;;;;;5068434;28;20075;-56
2022/06/30 02:45:02;;;;;;;10.23;2.25;;;15.70;99.90;;;;;;5068797;28;20091;-54
2022/06/30 02:47:36;;;;;;;12.23;2.60;;;15.70;99.90;;;;;;5067939;28;20094;-56
2022/06/30 02:50:05;;;;;;;8.82;2.30;;;15.70;99.90;;;;;;5068519;28;20080;-55
2022/06/30 02:52:32;;;;;;;10.57;2.55;;;15.70;99.90;;;;;;5067811;28;20533;-56
2022/06/30 02:54:59;;;;;;;10.27;2.65;;;15.70;99.90;;;;;;5064633;28;20140;-55
2022/06/30 02:57:26;;;;;;;10.63;3.03;;;15.60;99.90;;;;;;5069479;28;20062;-57
2022/06/30 02:59:53;;;;;;;15.90;3.70;;;15.60;99.90;;;;;;5067855;28;20084;-56
2022/06/30 03:02:20;;;;;;;11.40;3.22;;;15.60;99.90;;;;;;5068071;28;20127;-55
2022/06/30 03:04:46;;;;;;;9.75;3.20;;;15.60;99.90;;;;;;5068041;28;20044;-54
2022/06/30 03:07:13;;;;;;;12.35;4.07;;;15.60;99.90;;;;;;5068485;28;20040;-55
2022/06/30 03:09:40;;;;;;;10.57;2.83;;;15.60;99.90;;;;;;5068152;28;20059;-54
2022/06/30 03:12:07;;;;;;;9.02;2.92;;;15.70;99.90;;;;;;5068097;28;20124;-56
2022/06/30 03:14:34;;;;;;;8.82;3.60;;;15.70;99.90;;;;;;5066803;28;20091;-57
2022/06/30 03:17:01;;;;;;;8.30;2.67;;;15.60;99.90;;;;;;5067812;28;20076;-56
2022/06/30 03:19:28;;;;;;;9.60;2.97;;;15.60;99.90;;;;;;5067849;28;20131;-55
2022/06/30 03:21:54;;;;;;;7.20;2.80;;;15.60;99.90;;;;;;5067664;28;20460;-56
2022/06/30 03:24:21;;;;;;;13.02;4.45;;;15.50;99.90;;;;;;5067807;28;20123;-55
2022/06/30 03:26:49;;;;;;;6.70;2.60;;;15.50;99.90;;;;;;5067870;28;20091;-54
2022/06/30 03:29:16;;;;;;;7.80;3.28;;;15.50;99.90;;;;;;5067650;28;20153;-56
2022/06/30 03:31:43;;;;;;;9.65;3.53;;;15.50;99.90;;;;;;5055030;28;20076;-56
2022/06/30 03:34:10;;;;;;;10.60;3.10;;;15.50;99.90;;;;;;5066887;28;20048;-55
2022/06/30 03:36:37;;;;;;;9.90;2.88;;;15.40;99.90;;;;;;5066826;28;20098;-54
2022/06/30 03:39:04;;;;;;;9.25;3.13;;;15.40;99.90;;;;;;5067579;28;20128;-56
2022/06/30 03:41:31;;;;;;;7.57;2.90;;;15.40;99.90;;;;;;5067924;28;20128;-56
2022/06/30 03:43:57;;;;;;;13.70;3.47;;;15.40;99.90;;;;;;5067667;28;20072;-54
2022/06/30 03:46:24;;;;;;;10.05;3.72;;;15.40;99.90;;;;;;5067524;28;20123;-57
2022/06/30 03:48:51;;;;;;;9.10;3.47;;;15.40;99.90;;;;;;5067756;28;20052;-55
2022/06/30 03:51:18;;;;;;;8.75;3.45;;;15.40;99.90;;;;;;5067699;28;20131;-54
2022/06/30 03:53:44;;;;;;;9.45;3.40;;;15.40;99.90;;;;;;5067534;28;20067;-57
2022/06/30 03:56:11;;;;;;;8.15;3.60;;;15.40;99.90;;;;;;5067574;28;20088;-57
2022/06/30 03:58:38;;;;;;;11.00;3.05;;;15.40;99.90;;;;;;5066147;28;20071;-55
2022/06/30 04:01:05;;;;;;;11.98;3.58;;;15.40;99.90;;;;;;5069829;28;20128;-58
2022/06/30 04:03:31;;;;;;;11.13;3.67;;;15.40;99.90;;;;;;5069412;28;20071;-54
2022/06/30 04:05:58;;;;;;;12.18;3.22;;;15.40;99.90;;;;;;5071644;28;20072;-54
2022/06/30 04:08:25;;;;;;;7.65;3.13;;;15.40;99.90;;;;;;5071769;28;20044;-56
2022/06/30 04:10:52;;;;;;;11.18;4.30;;;15.40;99.90;;;;;;5071628;28;20076;-57
2022/06/30 04:13:19;;;;;;;8.95;2.60;;;15.30;99.90;;;;;;5071346;28;20128;-54
2022/06/30 04:15:45;;;;;;;12.15;3.97;;;15.30;99.90;;;;;;5071339;28;20095;-56
2022/06/30 04:18:12;;;;;;;11.65;3.38;;;15.30;99.90;;;;;;5060585;28;20082;-56
2022/06/30 04:20:39;;;;;;;13.88;3.03;;;15.30;99.90;;;;;;5071090;28;20083;-55
2022/06/30 04:23:06;;;;;;;7.80;3.38;;;15.40;99.90;;;;;;5071512;28;20036;-56
2022/06/30 04:25:33;;;;;;;6.85;2.80;;;15.40;99.90;;;;;;5071274;28;20117;-55
2022/06/30 04:28:00;;;;;;;12.32;3.47;;;15.40;99.90;;;;;;5071280;28;20071;-56
2022/06/30 04:33:13;;;;;;;10.48;3.50;;;15.40;99.90;;;;;;5071402;28;20040;-55
2022/06/30 04:35:40;;;;;;;11.60;2.95;;;15.40;99.90;;;;;;5070972;28;20522;-52
2022/06/30 04:38:07;;;;;;;9.57;2.75;;;15.40;99.90;;;;;;5071108;28;20040;-53
2022/06/30 04:43:19;;;;;;;14.80;2.92;;;15.40;99.90;;;;;;5071157;28;20487;-56
2022/06/30 04:45:46;;;;;;;8.15;2.55;;;15.40;99.90;;;;;;5071444;28;20055;-56
2022/06/30 04:48:13;;;;;;;10.02;2.50;;;15.40;99.90;;;;;;5069318;28;20178;-55
2022/06/30 04:50:40;;;;;;;14.23;2.95;;;15.40;99.90;;;;;;5071200;28;20127;-56
2022/06/30 04:53:07;;;;;;;11.77;2.67;;;15.50;99.90;;;;;;5070716;28;20044;-54
2022/06/30 04:55:34;;;;;;;6.05;2.47;;;15.40;99.90;;;;;;5070596;28;20561;-58
2022/06/30 04:58:00;;;;;;;16.02;2.20;;;15.40;99.90;;;;;;5071728;28;20127;-57
2022/06/30 05:00:27;;;;;;;7.10;2.70;;;15.50;99.90;;;;;;5069412;28;20091;-57
2022/06/30 05:02:54;;;;;;;9.10;2.10;;;15.50;99.90;;;;;;5070723;28;20123;-55
2022/06/30 05:05:21;;;;;;;12.65;2.88;;;15.60;99.90;;;;;;5070506;28;20117;-55
2022/06/30 05:07:48;;;;;;;8.38;2.30;;;15.60;99.90;;;;;;5070476;28;20076;-54
2022/06/30 05:10:14;;;;;;;7.55;2.00;;;15.60;99.90;;;;;;5070336;28;20112;-56
2022/06/30 05:12:41;;;;;;;10.18;3.60;;;15.60;99.90;;;;;;5070474;28;20044;-56
2022/06/30 05:15:08;;;;;;;10.57;2.85;;;15.60;99.90;;;;;;5070915;28;20524;-55
2022/06/30 05:17:35;;;;;;;8.43;2.28;;;15.70;99.90;;;;;;5070241;28;20094;-56
2022/06/30 05:20:03;;;;;;;10.15;3.42;;;15.70;99.90;;;;;;5070687;28;20076;-56
2022/06/30 05:22:29;;;;;;;10.32;2.45;;;15.70;99.90;;;;;;5070107;28;20050;-57
2022/06/30 05:27:47;;;;;;;9.27;2.70;;;15.70;99.90;;;;;;5070570;28;20076;-55
2022/06/30 05:30:15;;;;;;;9.05;2.47;;;15.70;99.90;;;;;;5067503;28;20044;-54
2022/06/30 05:32:42;;;;;;;7.90;2.58;;;15.70;99.90;;;;;;5070208;28;20044;-58
2022/06/30 05:35:09;;;;;;;11.52;2.72;;;15.70;99.90;;;;;;5070365;28;20091;-54
2022/06/30 05:37:36;;;;;;;6.40;2.20;;;15.70;99.90;;;;;;5070132;28;20368;-57
2022/06/30 05:40:04;;;;;;;8.55;2.30;;;15.70;99.90;;;;;;5070119;28;20075;-55
2022/06/30 05:42:31;;;;;;;13.82;3.42;;;15.70;99.90;;;;;;5069834;28;20131;-56
2022/06/30 05:44:58;;;;;;;7.00;2.22;;;15.70;99.90;;;;;;5070026;28;20040;-57
2022/06/30 05:47:24;;;;;;;9.93;2.40;;;15.70;99.90;;;;;;5069507;28;20091;-57
2022/06/30 05:49:51;;;;;;;6.15;2.15;;;15.60;99.90;;;;;;5072552;28;20113;-52
2022/06/30 05:52:18;;;;;;;7.55;2.30;;;15.60;99.90;;;;;;5077527;28;20048;-58
2022/06/30 05:54:45;;;;;;;5.85;2.35;;;15.60;99.90;;;;;;5077444;28;20041;-54
2022/06/30 05:57:12;;;;;;;6.65;2.20;;;15.60;99.90;;;;;;5068929;28;20065;-54
2022/06/30 05:59:38;;;;;;;8.13;2.20;;;15.70;99.90;;;;;;5075753;28;20526;-56
2022/06/30 06:02:05;;;;;;;8.65;2.30;;;15.60;99.90;;;;;;5078980;28;20075;-54
2022/06/30 06:04:33;;;;;;;8.38;2.45;;;15.60;99.90;;;;;;5072926;28;20094;-54
2022/06/30 06:07:02;;;;;;;9.43;1.90;;;15.70;99.90;;;;;;5075651;28;20067;-54
2022/06/30 06:09:30;;;;;;;9.52;2.05;;;15.70;99.90;;;;;;5069014;28;20514;-57
2022/06/30 06:11:56;;;;;;;14.15;2.15;;;15.60;99.90;;;;;;5069394;28;20091;-54
2022/06/30 06:14:23;;;;;;;11.85;2.35;;;15.50;99.90;;;;;;5068823;28;20140;-61
2022/06/30 06:16:50;;;;;;;12.25;2.00;;;15.50;99.90;;;;;;5068843;28;20075;-53
2022/06/30 06:19:17;;;;;;;12.75;1.90;;;15.40;99.90;;;;;;5068838;28;20083;-54
2022/06/30 06:21:48;;;;;;;6.18;1.48;;;15.50;99.90;;;;;;5068228;28;20041;-57
2022/06/30 06:24:16;;;;;;;5.53;1.80;;;15.40;99.90;;;;;;5068374;28;20040;-58
2022/06/30 06:26:43;;;;;;;6.43;1.70;;;15.50;99.90;;;;;;5068505;28;20571;-58
2022/06/30 06:29:10;;;;;;;9.50;2.17;;;15.50;99.90;;;;;;5069270;28;20048;-58
2022/06/30 06:31:38;;;;;;;12.10;1.95;;;15.50;99.90;;;;;;5068255;28;20131;-56
2022/06/30 06:34:05;;;;;;;8.68;1.83;;;15.40;99.90;;;;;;5068066;28;20044;-57
2022/06/30 06:36:33;;;;;;;7.38;1.60;;;15.50;99.90;;;;;;5068296;28;20072;-57
2022/06/30 06:39:00;;;;;;;25.50;3.75;;;15.50;99.90;;;;;;5067079;28;20101;-56
2022/06/30 06:41:26;;;;;;;8.70;1.88;;;15.60;99.90;;;;;;5067776;28;20076;-57
2022/06/30 06:43:53;;;;;;;10.55;2.42;;;15.60;99.90;;;;;;5066699;28;20395;-56
2022/06/30 06:46:26;;;;;;;11.38;2.40;;;15.60;99.90;;;;;;5066710;28;20049;-57
2022/06/30 06:49:02;;;;;;;12.30;2.10;;;15.70;99.90;;;;;;5066640;28;20048;-57
2022/06/30 06:51:29;;;;;;;10.18;1.63;;;15.70;99.90;;;;;;5058134;28;20135;-57
2022/06/30 06:53:56;;;;;;;8.35;2.25;;;15.70;99.90;;;;;;5066364;28;20545;-56
2022/06/30 06:56:23;;;;;;;11.63;1.63;;;15.70;99.90;;;;;;5067149;28;20492;-53
2022/06/30 06:58:57;;;;;;;8.02;2.03;;;15.70;99.90;;;;;;5067578;28;20110;-53
2022/06/30 07:01:24;;;;;;;6.38;2.25;;;15.80;99.90;;;;;;5067732;28;20044;-55
2022/06/30 07:03:51;;;;;;;8.00;1.63;;;15.80;99.90;;;;;;5067655;28;20048;-59
2022/06/30 07:06:17;;;;;;;6.70;2.25;;;15.90;99.90;;;;;;5067102;28;20083;-58
2022/06/30 07:08:44;;;;;;;8.70;1.98;;;15.90;99.90;;;;;;5065558;28;20076;-58
2022/06/30 07:11:11;;;;;;;12.02;2.20;;;15.80;99.90;;;;;;5062288;28;20075;-59
2022/06/30 07:13:38;;;;;;;8.82;1.75;;;15.80;99.90;;;;;;5064733;28;20052;-58
2022/06/30 07:16:05;;;;;;;7.30;1.60;;;15.90;99.90;;;;;;5066109;28;20068;-59
2022/06/30 07:18:32;;;;;;;4.60;1.38;;;15.90;99.90;;;;;;5067135;28;20048;-57
2022/06/30 07:20:58;;;;;;;4.50;1.10;;;15.90;99.90;;;;;;5066321;28;20445;-58
2022/06/30 07:23:25;;;;;;;11.57;3.03;;;15.90;99.90;;;;;;5063470;28;20044;-59
2022/06/30 07:25:56;;;;;;;7.45;1.42;;;15.90;99.90;;;;;;5065472;28;20076;-59
2022/06/30 07:28:23;;;;;;;7.63;1.35;;;15.90;99.90;;;;;;5067189;28;20208;-58
2022/06/30 07:31:11;;;;;;;6.35;1.17;;;15.90;99.90;;;;;;5060099;28;20048;-59
2022/06/30 07:33:38;;;;;;;9.77;2.65;;;15.90;99.90;;;;;;5066802;28;20045;-59
2022/06/30 07:36:04;;;;;;;9.32;1.42;;;15.80;99.90;;;;;;5067073;28;20588;-60
2022/06/30 07:38:31;;;;;;;5.30;1.23;;;15.80;99.90;;;;;;5066932;28;20485;-60
2022/06/30 07:40:58;;;;;;;12.13;2.03;;;15.80;99.90;;;;;;5067023;28;20062;-59
2022/06/30 07:43:25;;;;;;;6.07;1.63;;;15.80;99.90;;;;;;5066237;28;20396;-59
2022/06/30 07:45:52;;;;;;;4.88;1.17;;;15.80;99.90;;;;;;5065210;28;20173;-58
2022/06/30 07:48:20;;;;;;;13.77;1.90;;;15.80;99.90;;;;;;5065889;28;20484;-58
2022/06/30 07:50:46;;;;;;;13.77;1.60;;;15.90;99.90;;;;;;5059493;28;20079;-58
2022/06/30 07:53:13;;;;;;;11.88;1.90;;;15.80;99.90;;;;;;5066585;28;20473;-58
2022/06/30 07:55:40;;;;;;;7.65;1.50;;;15.80;99.90;;;;;;5066106;28;20123;-58
2022/06/30 07:58:07;;;;;;;8.80;2.00;;;15.90;99.90;;;;;;5060813;28;20072;-59
2022/06/30 08:00:33;;;;;;;6.38;1.75;;;16.00;99.90;;;;;;5066649;28;20445;-59
2022/06/30 08:03:00;;;;;;;5.18;1.45;;;16.10;99.90;;;;;;5064919;28;20057;-59
2022/06/30 08:05:27;;;;;;;12.35;2.03;;;16.20;99.90;;;;;;5066843;28;20084;-60
2022/06/30 08:07:54;;;;;;;16.70;2.38;;;16.20;99.90;;;;;;5066698;28;20084;-59
2022/06/30 08:10:21;;;;;;;5.55;1.23;;;16.30;99.90;;;;;;5067177;28;20070;-59
2022/06/30 08:12:47;;;;;;;8.13;2.38;;;16.40;99.90;;;;;;5066870;28;20068;-59
2022/06/30 08:15:15;;;;;;;7.35;1.55;;;16.50;99.90;;;;;;5066574;28;20052;-57
2022/06/30 08:17:42;;;;;;;6.38;1.58;;;16.60;99.90;;;;;;5065519;28;20128;-58
2022/06/30 08:20:09;;;;;;;5.25;1.15;;;16.60;99.90;;;;;;5065626;28;20071;-59
2022/06/30 08:22:35;;;;;;;7.55;1.10;;;16.60;99.90;;;;;;5066794;28;20048;-59
2022/06/30 08:25:03;;;;;;;8.75;1.75;;;16.70;99.90;;;;;;5066883;28;20067;-58
2022/06/30 08:27:30;;;;;;;9.68;1.58;;;16.80;99.90;;;;;;5066640;28;20135;-59
2022/06/30 08:29:57;;;;;;;8.32;1.80;;;16.90;99.90;;;;;;5065415;28;20072;-59
2022/06/30 08:32:23;;;;;;;9.60;1.75;;;16.90;99.90;;;;;;5065296;28;20048;-57
2022/06/30 08:34:50;;;;;;;5.03;1.02;;;17.00;99.90;;;;;;5067025;28;20057;-59
2022/06/30 08:37:17;;;;;;;14.13;2.03;;;17.10;99.90;;;;;;5065470;28;20113;-59
2022/06/30 08:42:30;;;;;;;7.25;1.38;;;17.10;99.90;;;;;;5066513;28;20052;-58
2022/06/30 08:47:46;;;;;;;22.75;2.55;;;17.10;99.90;;;;;;5069263;28;20066;-59
2022/06/30 08:50:14;;;;;;;6.60;1.52;;;17.20;99.90;;;;;;5070206;28;20049;-57
2022/06/30 08:52:48;;;;;;;9.05;1.17;;;17.30;99.90;;;;;;5051437;28;20045;-58
2022/06/30 08:55:15;;;;;;;8.18;1.88;;;17.30;99.90;;;;;;5068789;28;20037;-59
2022/06/30 08:57:44;;;;;;;12.55;1.38;;;17.30;99.90;;;;;;5068680;28;20499;-59
2022/06/30 09:00:11;;;;;;;3.63;1.40;;;17.40;99.90;;;;;;5066379;28;20571;-59
2022/06/30 09:02:38;;;;;;;7.15;1.60;;;17.50;99.90;;;;;;5070063;28;20056;-59
2022/06/30 09:05:06;;;;;;;3.63;1.20;;;17.50;99.90;;;;;;5070173;28;20627;-59
2022/06/30 09:07:34;;;;;;;2.67;0.90;;;17.50;99.90;;;;;;5070459;28;20102;-58
2022/06/30 09:10:02;;;;;;;3.10;1.02;;;17.50;99.90;;;;;;5069941;28;20048;-58
2022/06/30 09:12:28;;;;;;;4.40;0.98;;;17.50;99.90;;;;;;5069085;28;20080;-58
2022/06/30 09:14:55;;;;;;;7.47;1.35;;;17.50;99.90;;;;;;5068475;28;20045;-59
2022/06/30 09:17:23;;;;;;;7.45;1.27;;;17.60;99.90;;;;;;5068959;28;20071;-58
2022/06/30 09:20:00;;;;;;;7.03;1.30;;;17.60;99.90;;;;;;5069854;28;20114;-59
2022/06/30 09:22:37;;;;;;;4.13;1.55;;;17.60;99.90;;;;;;5069836;28;20494;-59
2022/06/30 09:25:07;;;;;;;6.60;1.33;;;17.60;99.90;;;;;;5069873;28;20540;-59
2022/06/30 09:27:36;;;;;;;7.60;1.45;;;17.70;99.90;;;;;;5069988;28;20045;-59
2022/06/30 09:30:10;;;;;;;4.97;1.42;;;17.70;99.90;;;;;;5069869;28;20098;-57
2022/06/30 09:32:56;;;;;;;3.80;0.80;;;17.70;99.90;;;;;;5070285;28;20087;-59
2022/06/30 09:35:25;;;;;;;5.28;1.30;;;17.70;99.90;;;;;;5068592;28;20055;-58
2022/06/30 09:38:12;;;;;;;6.38;1.30;;;17.70;99.90;;;;;;5069657;28;20048;-59
2022/06/30 09:43:32;;;;;;;6.45;1.30;;;17.90;99.90;;;;;;5069342;28;20461;-59
2022/06/30 09:45:59;;;;;;;10.70;1.55;;;18.00;99.90;;;;;;5069221;28;20118;-58
2022/06/30 09:48:28;;;;;;;5.35;1.70;;;18.00;99.90;;;;;;5069495;28;20048;-59
2022/06/30 09:51:07;;;;;;;7.18;1.58;;;18.00;99.90;;;;;;5069437;28;20559;-57
2022/06/30 09:53:34;;;;;;;6.93;1.48;;;18.10;99.90;;;;;;5069323;28;20040;-58
2022/06/30 09:56:14;;;;;;;4.65;1.02;;;18.10;99.90;;;;;;5068123;28;20132;-56
2022/06/30 09:58:42;;;;;;;2.65;0.80;;;18.20;99.90;;;;;;5069101;28;20071;-57
2022/06/30 10:01:09;;;;;;;5.60;1.33;;;18.20;99.90;;;;;;5069257;28;20040;-59
2022/06/30 10:03:47;;;;;;;8.77;1.40;;;18.20;99.90;;;;;;5068988;28;20068;-58
2022/06/30 10:06:15;;;;;;;9.30;1.45;;;18.20;99.90;;;;;;5061247;28;20305;-58
2022/06/30 10:08:42;;;;;;;3.70;1.05;;;18.30;99.90;;;;;;5067780;28;20095;-59
2022/06/30 10:11:09;;;;;;;10.23;1.98;;;18.30;99.90;;;;;;5068884;28;20048;-58
2022/06/30 10:13:38;;;;;;;3.10;0.85;;;18.40;99.90;;;;;;5068712;28;20052;-59
2022/06/30 10:16:06;;;;;;;4.82;1.70;;;18.30;99.90;;;;;;5068638;28;20553;-59
2022/06/30 10:18:36;;;;;;;4.88;1.00;;;18.30;99.90;;;;;;5068720;28;20053;-58
2022/06/30 10:21:04;;;;;;;2.55;0.80;;;18.30;99.90;;;;;;5068422;28;20509;-57
2022/06/30 10:23:32;;;;;;;11.80;1.98;;;18.30;99.90;;;;;;5068525;28;20491;-58
2022/06/30 10:25:58;;;;;;;2.47;1.00;;;18.40;99.90;;;;;;5068809;28;20177;-59
2022/06/30 10:28:27;;;;;;;5.55;1.30;;;18.40;99.90;;;;;;5068606;28;20080;-59
2022/06/30 10:31:16;;;;;;;3.90;0.80;;;18.50;99.90;;;;;;5068560;28;20040;-60
2022/06/30 10:34:14;;;;;;;5.00;1.60;;;18.40;99.90;;;;;;5067213;28;20127;-58
2022/06/30 10:36:57;;;;;;;6.53;1.50;;;18.50;99.80;;;;;;5068497;28;20045;-58
2022/06/30 10:39:38;;;;;;;2.15;0.95;;;18.50;99.00;;;;;;5067522;28;20109;-58
2022/06/30 10:42:05;;;;;;;3.90;0.95;;;18.40;97.60;;;;;;5067036;28;20051;-58
2022/06/30 10:44:32;;;;;;;7.65;2.47;;;18.30;99.90;;;;;;5067079;28;20083;-56
2022/06/30 10:47:04;;;;;;;4.72;1.30;;;18.40;99.90;;;;;;5068453;28;20498;-58
2022/06/30 10:49:35;;;;;;;5.57;1.63;;;18.50;99.90;;;;;;5066884;28;20045;-58
2022/06/30 10:52:27;;;;;;;8.25;1.50;;;18.60;99.00;;;;;;5066516;28;20064;-58
2022/06/30 10:55:04;;;;;;;7.47;1.67;;;18.50;98.30;;;;;;5064034;28;20176;-58
2022/06/30 10:58:06;;;;;;;6.68;1.15;;;18.70;99.50;;;;;;5065810;28;21484;-59
2022/06/30 11:00:45;;;;;;;9.90;1.30;;;18.70;99.90;;;;;;5066316;28;20135;-58
2022/06/30 11:03:37;;;;;;;3.83;1.10;;;18.80;99.90;;;;;;5066666;28;20064;-58
2022/06/30 11:06:06;;;;;;;4.75;1.17;;;18.80;99.90;;;;;;5066401;28;20103;-60
2022/06/30 11:08:36;;;;;;;5.82;1.77;;;18.70;99.90;;;;;;5066049;28;20049;-56
2022/06/30 11:11:22;;;;;;;5.75;1.60;;;18.60;99.90;;;;;;5067407;28;20306;-57
2022/06/30 11:14:01;;;;;;;4.80;1.55;;;18.50;99.90;;;;;;5062649;28;20049;-57
2022/06/30 11:16:32;;;;;;;20.15;2.15;;;18.40;99.90;;;;;;5051069;28;20080;-56
2022/06/30 11:19:00;;;;;;;9.98;1.92;;;17.60;99.90;;;;;;5067965;28;20481;-59
2022/06/30 11:21:31;;;;;;;8.70;2.03;;;16.70;99.90;;;;;;5067765;28;20156;-57
2022/06/30 11:24:01;;;;;;;8.40;1.50;;;16.30;99.90;;;;;;5067819;28;20107;-55
2022/06/30 11:29:16;;;;;;;7.80;1.58;;;16.10;99.90;;;;;;5067612;28;20434;-57
2022/06/30 11:31:43;;;;;;;5.72;1.48;;;16.10;99.90;;;;;;5067674;28;20413;-55
2022/06/30 11:34:19;;;;;;;5.25;1.40;;;16.20;99.90;;;;;;5067567;28;20506;-55
2022/06/30 11:36:46;;;;;;;4.60;1.13;;;16.20;99.90;;;;;;5066068;28;20048;-57
2022/06/30 11:39:15;;;;;;;6.22;1.85;;;16.20;99.90;;;;;;5067699;28;20280;-57
2022/06/30 11:41:55;;;;;;;5.20;1.60;;;16.30;99.90;;;;;;5067435;28;20582;-57
2022/06/30 11:44:23;;;;;;;8.95;1.65;;;16.50;99.90;;;;;;5058576;28;20066;-57
2022/06/30 11:47:01;;;;;;;11.88;2.20;;;16.60;99.90;;;;;;5066392;28;20049;-58
2022/06/30 11:49:42;;;;;;;5.95;1.52;;;16.80;99.90;;;;;;5067624;28;20044;-55
2022/06/30 11:52:15;;;;;;;4.28;1.15;;;17.00;99.90;;;;;;5067063;28;20178;-58
2022/06/30 11:54:55;;;;;;;8.77;1.35;;;17.00;99.90;;;;;;5058065;28;20044;-58
2022/06/30 11:57:23;;;;;;;7.82;1.45;;;17.00;99.90;;;;;;5067231;28;20063;-59
2022/06/30 11:59:57;;;;;;;5.63;1.42;;;17.10;99.90;;;;;;5058090;28;20090;-59
2022/06/30 12:02:24;;;;;;;5.63;1.63;;;17.20;99.90;;;;;;5067121;28;20056;-58
2022/06/30 12:04:56;;;;;;;6.05;1.30;;;17.20;99.90;;;;;;5067525;28;20044;-59
2022/06/30 12:07:24;;;;;;;3.83;1.40;;;17.30;99.90;;;;;;5066982;28;20491;-58
2022/06/30 12:09:51;;;;;;;4.50;1.08;;;17.30;99.90;;;;;;5065659;28;20080;-60
2022/06/30 12:12:19;;;;;;;3.15;0.80;;;17.30;99.90;;;;;;5067077;28;20076;-59
2022/06/30 12:14:46;;;;;;;3.40;1.27;;;17.20;99.90;;;;;;5066892;28;20083;-59
2022/06/30 12:17:13;;;;;;;3.00;1.00;;;17.20;99.90;;;;;;5067123;28;20068;-59
2022/06/30 12:19:43;;;;;;;5.55;1.10;;;17.10;99.90;;;;;;5067239;28;20084;-60
2022/06/30 12:22:10;;;;;;;8.43;1.17;;;17.10;99.90;;;;;;5069109;28;20040;-59
2022/06/30 12:24:38;;;;;;;5.47;1.13;;;17.20;99.90;;;;;;5053211;28;20079;-60
2022/06/30 12:27:05;;;;;;;4.10;1.02;;;17.20;99.90;;;;;;5070822;28;20045;-58
2022/06/30 12:29:32;;;;;;;7.72;1.60;;;17.20;99.90;;;;;;5070868;28;20084;-58
2022/06/30 12:32:07;;;;;;;6.03;1.23;;;17.40;99.90;;;;;;5067049;28;20099;-59
2022/06/30 12:34:48;;;;;;;3.85;0.95;;;17.40;99.90;;;;;;5069716;28;20128;-58
2022/06/30 12:37:15;;;;;;;4.28;0.85;;;17.40;99.90;;;;;;5069353;28;20082;-57
2022/06/30 12:39:45;;;;;;;1.27;0.80;;;17.20;99.90;;;;;;5070692;28;20071;-57
2022/06/30 12:42:12;;;;;;;4.13;1.15;;;17.20;99.90;;;;;;5069087;28;20143;-58
2022/06/30 12:44:40;;;;;;;4.05;0.80;;;17.20;99.90;;;;;;5070410;28;20072;-58
2022/06/30 12:47:10;;;;;;;4.68;0.93;;;17.20;99.90;;;;;;5067200;28;20137;-59
2022/06/30 12:49:38;;;;;;;1.75;1.02;;;17.20;99.90;;;;;;5069475;28;20044;-59
2022/06/30 12:52:15;;;;;;;6.50;0.80;;;17.30;99.90;;;;;;5068946;28;20044;-58
2022/06/30 12:54:56;;;;;;;5.93;0.90;;;17.30;99.90;;;;;;5070258;28;20076;-58
2022/06/30 12:57:24;;;;;;;2.75;0.90;;;17.40;99.90;;;;;;5070581;28;20099;-58
2022/06/30 12:59:55;;;;;;;8.25;0.90;;;17.40;99.90;;;;;;5068313;28;20098;-59
2022/06/30 13:02:33;;;;;;;4.07;0.60;;;17.50;99.90;;;;;;5070290;28;20079;-59
2022/06/30 13:05:00;;;;;;;3.63;0.68;;;17.50;99.90;;;;;;5068881;28;20094;-58
2022/06/30 13:07:27;;;;;;;5.57;0.82;;;17.60;99.90;;;;;;5070256;28;20132;-60
2022/06/30 13:09:53;;;;;;;8.02;1.02;;;17.60;99.90;;;;;;5070363;28;20131;-59
2022/06/30 13:12:20;;;;;;;5.15;0.98;;;17.70;99.90;;;;;;5069953;28;20090;-58